createdAt,value
2022-11-09T00:01:10.710Z,77.57
2022-11-09T00:06:12.405Z,77.75
2022-11-09T00:11:13.972Z,77.79
2022-11-09T00:16:18.515Z,77.83
2022-11-09T00:21:22.578Z,77.79
2022-11-09T00:26:24.256Z,77.94
2022-11-09T00:31:25.987Z,77.89
2022-11-09T00:36:29.964Z,78.01
2022-11-09T00:41:31.717Z,78.12
2022-11-09T00:46:33.263Z,78.10
2022-11-09T00:51:34.994Z,78.24
2022-11-09T00:56:36.943Z,78.34
2022-11-09T01:01:38.696Z,78.27
2022-11-09T01:06:40.291Z,78.48
2022-11-09T01:11:44.645Z,78.61
2022-11-09T01:16:47.243Z,78.28
2022-11-09T01:21:49.016Z,78.64
2022-11-09T01:26:50.725Z,78.80
2022-11-09T01:31:55.137Z,78.75
2022-11-09T01:36:56.637Z,78.84
2022-11-09T01:41:58.182Z,78.93
2022-11-09T01:47:04.269Z,78.98
2022-11-09T01:52:14.157Z,79.07
2022-11-09T01:57:25.461Z,78.98
2022-11-09T02:02:27.233Z,78.84
2022-11-09T02:07:29.416Z,78.90
2022-11-09T02:12:34.510Z,79.09
2022-11-09T02:17:36.744Z,79.25
2022-11-09T02:22:38.616Z,79.32
2022-11-09T02:27:40.756Z,79.17
2022-11-09T02:32:42.272Z,79.28
2022-11-09T02:37:50.643Z,79.17
2022-11-09T02:42:53.098Z,79.06
2022-11-09T02:47:55.984Z,79.25
2022-11-09T02:52:57.508Z,79.18
2022-11-09T02:57:59.195Z,79.13
2022-11-09T03:03:01.145Z,79.24
2022-11-09T03:08:02.797Z,79.09
2022-11-09T03:13:07.483Z,79.26
2022-11-09T03:18:09.934Z,79.26
2022-11-09T03:23:12.245Z,79.29
2022-11-09T03:28:14.886Z,79.38
2022-11-09T03:33:16.831Z,79.57
2022-11-09T03:38:18.634Z,79.64
2022-11-09T03:43:21.725Z,79.64
2022-11-09T03:48:23.976Z,79.80
2022-11-09T03:53:25.490Z,79.65
2022-11-09T03:58:27.229Z,79.74
2022-11-09T04:03:28.773Z,79.64
2022-11-09T04:08:30.341Z,79.67
2022-11-09T04:13:31.807Z,79.78
2022-11-09T04:18:34.115Z,79.88
2022-11-09T04:23:35.770Z,80.22
2022-11-09T04:28:37.406Z,80.73
2022-11-09T04:33:38.879Z,80.97
2022-11-09T04:38:40.490Z,81.29
2022-11-09T04:43:42.108Z,81.55
2022-11-09T04:48:44.312Z,81.57
2022-11-09T04:53:45.807Z,81.67
2022-11-09T04:58:47.333Z,81.49
2022-11-09T05:03:48.893Z,81.64
2022-11-09T05:08:50.606Z,81.62
2022-11-09T05:13:52.128Z,81.63
2022-11-09T05:18:55.011Z,81.54
2022-11-09T05:23:59.413Z,81.58
2022-11-09T05:29:03.865Z,81.64
2022-11-09T05:34:06.593Z,81.62
2022-11-09T05:39:08.111Z,81.79
2022-11-09T05:44:09.634Z,81.75
2022-11-09T05:49:11.117Z,81.73
2022-11-09T05:54:12.652Z,81.69
2022-11-09T05:59:14.127Z,81.81
2022-11-09T06:04:15.645Z,81.81
2022-11-09T06:09:17.149Z,81.75
2022-11-09T06:14:18.626Z,81.65
2022-11-09T06:19:20.320Z,81.56
2022-11-09T06:24:21.811Z,81.35
2022-11-09T06:29:23.477Z,81.16
2022-11-09T06:34:24.958Z,81.12
2022-11-09T06:39:26.455Z,80.87
2022-11-09T06:44:28.095Z,80.66
2022-11-09T06:49:29.746Z,80.86
2022-11-09T06:54:31.505Z,80.90
2022-11-09T06:59:33.083Z,80.84
2022-11-09T07:04:35.226Z,80.84
2022-11-09T07:09:36.747Z,80.60
2022-11-09T07:14:38.192Z,80.56
2022-11-09T07:19:39.699Z,80.27
2022-11-09T07:24:41.263Z,80.48
2022-11-09T07:29:42.926Z,80.53
2022-11-09T07:34:46.326Z,79.58
2022-11-09T07:39:47.810Z,77.18
2022-11-09T07:44:49.380Z,74.54
2022-11-09T07:49:50.850Z,72.63
2022-11-09T07:54:52.580Z,69.14
2022-11-09T07:59:54.107Z,68.00
2022-11-09T08:04:55.664Z,68.74
2022-11-09T08:09:57.134Z,71.39
2022-11-09T08:14:58.644Z,73.28
2022-11-09T08:20:00.219Z,74.32
2022-11-09T08:25:01.926Z,74.78
2022-11-09T08:30:04.051Z,75.22
2022-11-09T08:35:06.024Z,74.99
2022-11-09T08:40:07.974Z,74.83
2022-11-09T08:45:10.750Z,75.23
2022-11-09T08:50:14.050Z,75.10
2022-11-09T08:55:15.559Z,74.75
2022-11-09T09:00:17.460Z,74.93
2022-11-09T09:05:19.604Z,74.99
2022-11-09T09:10:21.079Z,75.03
2022-11-09T09:15:23.131Z,74.74
2022-11-09T09:20:24.628Z,74.64
2022-11-09T09:25:26.994Z,74.75
2022-11-09T09:30:28.915Z,74.62
2022-11-09T09:35:30.372Z,74.70
2022-11-09T09:40:40.715Z,74.49
2022-11-09T09:45:51.394Z,74.56
2022-11-09T09:50:54.509Z,74.52
2022-11-09T09:56:17.009Z,74.08
2022-11-09T10:01:23.957Z,73.64
2022-11-09T10:06:59.346Z,73.48
2022-11-09T10:12:42.130Z,73.27
2022-11-09T10:18:25.088Z,73.27
2022-11-09T10:23:32.599Z,72.97
2022-11-09T10:29:09.119Z,73.09
2022-11-09T10:34:17.524Z,72.75
2022-11-09T10:39:22.620Z,72.97
2022-11-09T10:44:43.096Z,72.63
2022-11-09T10:50:13.694Z,72.55
2022-11-09T10:55:36.690Z,72.69
2022-11-09T11:01:01.351Z,73.11
2022-11-09T11:06:21.216Z,73.15
2022-11-09T11:11:41.287Z,72.79
2022-11-09T11:17:01.383Z,72.19
2022-11-09T11:22:27.133Z,71.37
2022-11-09T11:27:57.291Z,71.19
2022-11-09T11:33:22.418Z,70.60
2022-11-09T11:38:48.495Z,70.19
2022-11-09T11:44:52.683Z,70.02
2022-11-09T11:50:55.470Z,70.37
2022-11-09T11:56:21.784Z,70.58
2022-11-09T12:02:09.917Z,70.78
2022-11-09T12:07:52.234Z,70.40
2022-11-09T12:13:31.086Z,70.10
2022-11-09T12:19:11.141Z,69.45
2022-11-09T12:24:42.597Z,69.31
2022-11-09T12:30:17.454Z,69.51
2022-11-09T12:36:09.642Z,68.97
2022-11-09T12:41:35.965Z,68.88
2022-11-09T12:47:15.540Z,69.08
2022-11-09T12:52:37.044Z,68.69
2022-11-09T12:58:00.865Z,68.45
2022-11-09T13:03:27.814Z,67.76
2022-11-09T13:09:08.066Z,67.88
2022-11-09T13:14:34.875Z,68.16
2022-11-09T13:19:56.552Z,68.50
2022-11-09T13:25:47.168Z,69.03
2022-11-09T13:31:09.695Z,69.23
2022-11-09T13:36:29.791Z,68.86
2022-11-09T13:41:50.029Z,69.21
2022-11-09T13:47:26.414Z,69.28
2022-11-09T13:52:51.434Z,69.31
2022-11-09T13:58:37.491Z,69.47
2022-11-09T14:03:58.044Z,69.39
2022-11-09T14:09:20.269Z,69.59
2022-11-09T14:15:09.193Z,69.50
2022-11-09T14:20:40.652Z,69.53
2022-11-09T14:26:08.606Z,69.35
2022-11-09T14:31:30.887Z,69.06
2022-11-09T14:36:50.764Z,68.71
2022-11-09T14:42:18.910Z,68.79
2022-11-09T14:47:39.460Z,69.03
2022-11-09T14:53:01.329Z,69.70
2022-11-09T14:58:23.234Z,69.90
2022-11-09T15:03:44.991Z,70.34
2022-11-09T15:09:08.629Z,70.64
2022-11-09T15:14:32.714Z,70.72
2022-11-09T15:20:19.920Z,70.98
2022-11-09T15:25:43.413Z,71.50
2022-11-09T15:31:03.380Z,72.03
2022-11-09T15:36:34.998Z,72.61
2022-11-09T15:41:55.381Z,72.71
2022-11-09T15:47:31.768Z,72.88
2022-11-09T15:52:52.494Z,73.22
2022-11-09T15:58:14.735Z,73.73
2022-11-09T16:03:34.834Z,73.59
2022-11-09T16:08:55.155Z,73.72
2022-11-09T16:14:17.647Z,73.97
2022-11-09T16:19:39.491Z,74.17
2022-11-09T16:24:59.948Z,74.58
2022-11-09T16:30:20.986Z,74.74
2022-11-09T16:35:41.288Z,74.96
2022-11-09T16:41:02.938Z,74.99
2022-11-09T16:46:28.646Z,75.19
2022-11-09T16:51:49.132Z,75.19
2022-11-09T16:57:09.400Z,75.93
2022-11-09T17:02:29.770Z,76.35
2022-11-09T17:07:49.742Z,76.40
2022-11-09T17:13:11.103Z,76.82
2022-11-09T17:18:31.185Z,77.71
2022-11-09T17:23:51.551Z,78.79
2022-11-09T17:29:12.610Z,79.95
2022-11-09T17:34:32.882Z,80.93
2022-11-09T17:39:53.207Z,82.01
2022-11-09T17:45:13.648Z,83.11
2022-11-09T17:50:33.591Z,84.29
2022-11-09T17:55:53.996Z,85.26
2022-11-09T18:01:17.361Z,86.09
2022-11-09T18:06:38.107Z,86.69
2022-11-09T18:11:57.930Z,87.33
2022-11-09T18:17:18.162Z,87.94
2022-11-09T18:22:38.353Z,88.48
2022-11-09T18:27:58.563Z,88.69
2022-11-09T18:33:19.093Z,89.14
2022-11-09T18:38:39.536Z,89.39
2022-11-09T18:43:59.494Z,89.61
2022-11-09T18:49:20.965Z,89.60
2022-11-09T18:54:40.940Z,89.92
2022-11-09T19:00:01.350Z,90.01
2022-11-09T19:05:21.589Z,90.06
2022-11-09T19:10:41.497Z,90.33
2022-11-09T19:16:01.586Z,90.50
2022-11-09T19:21:24.879Z,90.55
2022-11-09T19:26:45.519Z,90.69
2022-11-09T19:32:05.871Z,90.94
2022-11-09T19:37:25.955Z,91.02
2022-11-09T19:42:46.302Z,91.08
2022-11-09T19:48:06.494Z,91.17
2022-11-09T19:53:28.952Z,91.22
2022-11-09T19:58:50.398Z,91.31
2022-11-09T20:04:10.819Z,91.46
2022-11-09T20:09:31.587Z,91.46
2022-11-09T20:14:51.720Z,91.51
2022-11-09T20:20:15.111Z,91.56
2022-11-09T20:25:35.193Z,91.55
2022-11-09T20:30:56.653Z,91.54
2022-11-09T20:36:18.698Z,91.69
2022-11-09T20:41:39.063Z,91.75
2022-11-09T20:46:59.166Z,91.63
2022-11-09T20:52:20.073Z,91.59
2022-11-09T20:57:40.047Z,91.57
2022-11-09T21:03:00.181Z,91.67
2022-11-09T21:08:20.934Z,91.55
2022-11-09T21:13:42.792Z,91.64
2022-11-09T21:19:03.166Z,91.42
2022-11-09T21:24:42.453Z,91.23
2022-11-09T21:30:02.747Z,91.84
2022-11-09T21:35:22.942Z,91.86
2022-11-09T21:40:43.835Z,92.12
2022-11-09T21:46:03.919Z,92.00
2022-11-09T21:51:24.194Z,92.08
2022-11-09T21:56:44.913Z,92.16
2022-11-09T22:02:04.950Z,92.10
2022-11-09T22:07:24.852Z,92.28
2022-11-09T22:13:05.547Z,92.44
2022-11-09T22:18:49.566Z,92.14
2022-11-09T22:24:10.731Z,92.14
2022-11-09T22:29:30.826Z,92.10
2022-11-09T22:34:51.098Z,92.56
2022-11-09T22:40:11.226Z,92.46
2022-11-09T22:45:33.127Z,92.44
2022-11-09T22:50:53.521Z,92.37
2022-11-09T22:56:13.785Z,92.24
2022-11-09T23:01:34.323Z,92.12
2022-11-09T23:06:54.546Z,92.40
2022-11-09T23:12:15.581Z,92.03
2022-11-09T23:17:54.772Z,92.01
2022-11-09T23:23:15.159Z,92.06
2022-11-09T23:28:36.085Z,91.86
2022-11-09T23:33:57.840Z,91.99
2022-11-09T23:39:18.187Z,91.88
2022-11-09T23:44:38.275Z,92.09
2022-11-09T23:49:58.322Z,92.09
2022-11-09T23:55:18.570Z,92.16
